»·PEaware :: N751KT KSAN-KSNA

N751KT :: KSAN-KSNA

FLIGHT INFORMATION

Flight Status: Arrived
Operator: Privately registered:
United States
More flights under this callsign
Pilot: Dale K. (33503)
Aircraft: PIPER PA-28R-201 ARROW
(P28R)
More flights by this aircraft type
Origin: KSAN San Diego Intl-Lindbergh
United States
Destination: KSNA John Wayne-Orange Co
United States
More flights between these airports :: More routes between these airports
Route: OCN V23 SLI
File this flight plan on PilotEdge
Remarks:
Altitude:
(Current/Filed)
6,000ft
Speed:
(Current/Filed)
140kts
Departed: 07-Jan-22 03:04 PM
Arrived: 07-Jan-22 03:53 PM
Distance/Time
Traveled:
66nm/0:48
Distance/Time
To Go:
Arrived

Flight Plot

Page will automatically refresh every two minutes.


Map Options




Map Legend


Flown Route
Filed Route
Departure Airport
Arrival Airport
Navaid (VOR, NDB)
Fix

Horizontal Profiles

Position Reports

Time Latitude Longitude Heading Altitude Ground
Speed
07-Jan-22 14:39 32.733250 -117.177733 17 20ft 0kts
07-Jan-22 14:40 32.733250 -117.177733 17 20ft 0kts
07-Jan-22 14:41 32.733250 -117.177733 17 20ft 0kts
07-Jan-22 14:42 32.733250 -117.177733 17 20ft 0kts
07-Jan-22 14:43 32.733250 -117.177733 17 20ft 0kts
07-Jan-22 14:44 32.733250 -117.177733 17 20ft 0kts
07-Jan-22 14:45 32.733250 -117.177733 17 20ft 0kts
07-Jan-22 14:46 32.733250 -117.177733 17 20ft 0kts
07-Jan-22 14:47 32.733250 -117.177733 17 20ft 0kts
07-Jan-22 14:48 32.733250 -117.177733 17 20ft 0kts
07-Jan-22 14:49 32.733250 -117.177733 17 20ft 0kts
07-Jan-22 14:50 32.733250 -117.177733 17 20ft 0kts
07-Jan-22 14:51 32.733250 -117.177733 17 20ft 0kts
07-Jan-22 14:52 32.733250 -117.177733 17 20ft 0kts
07-Jan-22 14:53 32.733250 -117.177733 17 20ft 0kts
07-Jan-22 14:54 32.733146 -117.177433 161 20ft 0kts
07-Jan-22 14:55 32.731898 -117.176210 157 20ft 0kts
07-Jan-22 14:56 32.731694 -117.176105 155 20ft 0kts
07-Jan-22 14:57 32.731692 -117.176104 155 20ft 0kts
07-Jan-22 14:58 32.730815 -117.174902 159 20ft 0kts
07-Jan-22 14:59 32.730815 -117.174902 159 20ft 0kts
07-Jan-22 15:00 32.730815 -117.174902 159 20ft 0kts
07-Jan-22 15:01 32.730809 -117.174899 159 20ft 0kts
07-Jan-22 15:02 32.730064 -117.175231 285 20ft 0kts
07-Jan-22 15:03 32.735500 -117.193967 294 458ft 90kts
07-Jan-22 15:04 32.756862 -117.213328 325 1566ft 97kts
07-Jan-22 15:05 32.780879 -117.228867 326 2598ft 97kts
07-Jan-22 15:06 32.806917 -117.244074 336 3572ft 100kts
07-Jan-22 15:07 32.833656 -117.253652 337 4441ft 101kts
07-Jan-22 15:08 32.861166 -117.260872 345 5245ft 103kts
07-Jan-22 15:09 32.887880 -117.271398 334 5985ft 103kts
07-Jan-22 15:10 32.921142 -117.284582 337 5953ft 133kts
07-Jan-22 15:11 32.956505 -117.298616 337 5969ft 135kts
07-Jan-22 15:12 32.990827 -117.312400 340 5946ft 127kts
07-Jan-22 15:13 33.024112 -117.325814 339 5945ft 126kts
07-Jan-22 15:14 33.057079 -117.339086 340 5944ft 125kts
07-Jan-22 15:15 33.090011 -117.352361 340 5943ft 124kts
07-Jan-22 15:16 33.122820 -117.365598 339 5946ft 124kts
07-Jan-22 15:17 33.155646 -117.378864 337 5947ft 125kts
07-Jan-22 15:18 33.188995 -117.392342 336 5948ft 128kts
07-Jan-22 15:19 33.222651 -117.406860 332 5950ft 130kts
07-Jan-22 15:20 33.253192 -117.428825 314 5951ft 128kts
07-Jan-22 15:21 33.279582 -117.457710 310 5952ft 129kts
07-Jan-22 15:22 33.305315 -117.487539 308 5998ft 128kts
07-Jan-22 15:23 33.329882 -117.518374 309 5998ft 128kts
07-Jan-22 15:24 33.355450 -117.548456 310 5998ft 128kts
07-Jan-22 15:25 33.380878 -117.578096 310 5998ft 127kts
07-Jan-22 15:26 33.406287 -117.607753 310 5998ft 127kts
07-Jan-22 15:27 33.431597 -117.637318 310 5998ft 127kts
07-Jan-22 15:28 33.457008 -117.667027 309 6001ft 128kts
07-Jan-22 15:29 33.482539 -117.696905 309 6001ft 129kts
07-Jan-22 15:30 33.508237 -117.727010 309 6001ft 129kts
07-Jan-22 15:31 33.541800 -117.745088 336 6001ft 137kts
07-Jan-22 15:32 33.577589 -117.760190 332 6001ft 136kts
07-Jan-22 15:33 33.612931 -117.776793 332 6001ft 136kts
07-Jan-22 15:34 33.649020 -117.791761 335 6000ft 137kts
07-Jan-22 15:35 33.685211 -117.806024 335 6000ft 137kts
07-Jan-22 15:36 33.721460 -117.820190 335 6000ft 137kts
07-Jan-22 15:37 33.758224 -117.833243 337 6000ft 138kts
07-Jan-22 15:38 33.795228 -117.845974 338 5998ft 139kts
07-Jan-22 15:39 33.831168 -117.842231 62 5985ft 137kts
07-Jan-22 15:40 33.845768 -117.803839 31 5744ft 145kts
07-Jan-22 15:41 33.883093 -117.785386 12 5197ft 149kts
07-Jan-22 15:42 33.915517 -117.759898 103 4269ft 148kts
07-Jan-22 15:43 33.884279 -117.751013 193 3423ft 130kts
07-Jan-22 15:45 33.851502 -117.764401 197 2909ft 111kts
07-Jan-22 15:46 33.822985 -117.776426 188 2911ft 96kts
07-Jan-22 15:47 33.796674 -117.790082 216 2923ft 98kts
07-Jan-22 15:48 33.774722 -117.808785 211 2990ft 98kts
07-Jan-22 15:49 33.751053 -117.825345 209 2166ft 93kts
07-Jan-22 15:50 33.727286 -117.838878 188 1356ft 90kts
07-Jan-22 15:51 33.705725 -117.849493 205 678ft 72kts
07-Jan-22 15:52 33.689073 -117.860274 206 283ft 63kts
07-Jan-22 15:53 33.675949 -117.868759 227 59ft 21kts
07-Jan-22 15:54 33.675959 -117.869767 297 59ft 1kts
07-Jan-22 15:55 33.676154 -117.871190 212 59ft 0kts

Navigation Log

Ident Type
Flight plan parsing failed, navigation log unavailable